createdAt,value
2023-03-01T00:01:08.047Z,100.00
2023-03-01T00:03:35.467Z,100.00
2023-03-01T00:06:03.198Z,100.00
2023-03-01T00:08:31.111Z,100.00
2023-03-01T00:11:08.791Z,100.00
2023-03-01T00:13:36.832Z,100.00
2023-03-01T00:16:08.035Z,100.00
2023-03-01T00:18:35.194Z,100.00
2023-03-01T00:21:02.353Z,100.00
2023-03-01T00:23:29.158Z,100.00
2023-03-01T00:25:55.733Z,100.00
2023-03-01T00:28:22.626Z,100.00
2023-03-01T00:30:49.260Z,100.00
2023-03-01T00:33:15.905Z,100.00
2023-03-01T00:35:42.556Z,100.00
2023-03-01T00:38:09.578Z,100.00
2023-03-01T00:40:36.909Z,100.00
2023-03-01T00:43:04.526Z,100.00
2023-03-01T00:45:32.284Z,100.00
2023-03-01T00:47:59.132Z,100.00
2023-03-01T00:50:25.985Z,100.00
2023-03-01T00:52:56.887Z,100.00
2023-03-01T00:55:23.992Z,100.00
2023-03-01T00:57:50.581Z,100.00
2023-03-01T01:00:18.280Z,100.00
2023-03-01T01:02:45.205Z,100.00
2023-03-01T01:05:12.296Z,100.00
2023-03-01T01:07:39.379Z,100.00
2023-03-01T01:10:06.949Z,100.00
2023-03-01T01:12:33.941Z,100.00
2023-03-01T01:15:00.497Z,100.00
2023-03-01T01:17:27.087Z,100.00
2023-03-01T01:19:53.678Z,100.00
2023-03-01T01:22:20.186Z,100.00
2023-03-01T01:24:46.792Z,100.00
2023-03-01T01:27:13.310Z,100.00
2023-03-01T01:29:39.868Z,100.00
2023-03-01T01:32:06.505Z,100.00
2023-03-01T01:34:33.021Z,100.00
2023-03-01T01:37:03.890Z,100.00
2023-03-01T01:39:30.417Z,100.00
2023-03-01T01:41:57.080Z,100.00
2023-03-01T01:44:27.088Z,100.00
2023-03-01T01:47:21.491Z,100.00
2023-03-01T01:49:57.197Z,100.00
2023-03-01T01:52:32.590Z,100.00
2023-03-01T01:55:05.555Z,100.00
2023-03-01T01:57:42.977Z,100.00
2023-03-01T02:00:16.815Z,100.00
2023-03-01T02:02:45.657Z,100.00
2023-03-01T02:05:41.295Z,100.00
2023-03-01T02:08:09.398Z,100.00
2023-03-01T02:10:36.877Z,100.00
2023-03-01T02:13:04.050Z,100.00
2023-03-01T02:15:35.137Z,100.00
2023-03-01T02:18:03.479Z,100.00
2023-03-01T02:20:50.264Z,100.00
2023-03-01T02:23:16.857Z,100.00
2023-03-01T02:26:02.779Z,100.00
2023-03-01T02:28:39.076Z,100.00
2023-03-01T02:31:42.276Z,100.00
2023-03-01T02:34:22.152Z,100.00
2023-03-01T02:36:55.929Z,100.00
2023-03-01T02:39:37.083Z,100.00
2023-03-01T02:42:05.293Z,100.00
2023-03-01T02:44:31.868Z,100.00
2023-03-01T02:47:03.911Z,100.00
2023-03-01T02:49:33.429Z,100.00
2023-03-01T02:52:12.569Z,100.00
2023-03-01T02:54:49.614Z,100.00
2023-03-01T02:57:16.632Z,100.00
2023-03-01T02:59:44.282Z,100.00
2023-03-01T03:02:37.502Z,100.00
2023-03-01T03:05:09.477Z,100.00
2023-03-01T03:07:41.668Z,100.00
2023-03-01T03:10:12.298Z,100.00
2023-03-01T03:12:39.913Z,100.00
2023-03-01T03:15:09.906Z,100.00
2023-03-01T03:17:37.896Z,100.00
2023-03-01T03:20:06.909Z,100.00
2023-03-01T03:22:34.984Z,100.00
2023-03-01T03:25:01.529Z,100.00
2023-03-01T03:27:29.231Z,100.00
2023-03-01T03:29:55.761Z,100.00
2023-03-01T03:32:22.334Z,100.00
2023-03-01T03:34:49.501Z,100.00
2023-03-01T03:37:36.040Z,100.00
2023-03-01T03:40:02.712Z,100.00
2023-03-01T03:42:29.215Z,100.00
2023-03-01T03:44:55.749Z,100.00
2023-03-01T03:47:22.316Z,100.00
2023-03-01T03:49:48.842Z,100.00
2023-03-01T03:52:15.349Z,100.00
2023-03-01T03:54:41.893Z,100.00
2023-03-01T03:57:08.662Z,100.00
2023-03-01T03:59:35.285Z,100.00
2023-03-01T04:02:01.901Z,100.00
2023-03-01T04:04:28.449Z,100.00
2023-03-01T04:06:54.958Z,100.00
2023-03-01T04:09:21.613Z,100.00
2023-03-01T04:11:48.190Z,100.00
2023-03-01T04:14:14.735Z,100.00
2023-03-01T04:16:41.273Z,100.00
2023-03-01T04:19:08.038Z,100.00
2023-03-01T04:21:34.643Z,100.00
2023-03-01T04:24:01.342Z,100.00
2023-03-01T04:26:28.319Z,100.00
2023-03-01T04:28:54.934Z,100.00
2023-03-01T04:31:22.572Z,100.00
2023-03-01T04:33:54.644Z,100.00
2023-03-01T04:36:24.473Z,100.00
2023-03-01T04:38:51.421Z,100.00
2023-03-01T04:41:20.486Z,100.00
2023-03-01T04:43:47.555Z,100.00
2023-03-01T04:46:17.290Z,100.00
2023-03-01T04:48:45.909Z,100.00
2023-03-01T04:51:16.676Z,100.00
2023-03-01T04:53:44.002Z,100.00
2023-03-01T04:56:10.878Z,100.00
2023-03-01T04:58:37.884Z,100.00
2023-03-01T05:01:20.769Z,100.00
2023-03-01T05:03:52.531Z,100.00
2023-03-01T05:06:20.497Z,100.00
2023-03-01T05:08:47.026Z,100.00
2023-03-01T05:11:13.643Z,100.00
2023-03-01T05:13:41.259Z,100.00
2023-03-01T05:16:12.462Z,100.00
2023-03-01T05:18:39.942Z,100.00
2023-03-01T05:21:12.172Z,100.00
2023-03-01T05:23:39.297Z,100.00
2023-03-01T05:26:09.345Z,100.00
2023-03-01T05:28:38.977Z,100.00
2023-03-01T05:31:10.654Z,100.00
2023-03-01T05:33:41.629Z,100.00
2023-03-01T05:36:10.724Z,100.00
2023-03-01T05:38:37.770Z,100.00
2023-03-01T05:41:04.437Z,100.00
2023-03-01T05:43:35.007Z,100.00
2023-03-01T05:46:01.917Z,100.00
2023-03-01T05:48:28.512Z,100.00
2023-03-01T05:50:55.059Z,100.00
2023-03-01T05:53:24.419Z,100.00
2023-03-01T05:55:51.225Z,100.00
2023-03-01T05:58:20.335Z,100.00
2023-03-01T06:00:48.812Z,100.00
2023-03-01T06:03:18.207Z,100.00
2023-03-01T06:05:45.340Z,100.00
2023-03-01T06:08:13.085Z,100.00
2023-03-01T06:10:39.932Z,100.00
2023-03-01T06:13:06.518Z,100.00
2023-03-01T06:15:33.306Z,100.00
2023-03-01T06:18:00.414Z,100.00
2023-03-01T06:20:29.129Z,100.00
2023-03-01T06:22:56.321Z,100.00
2023-03-01T06:25:25.462Z,100.00
2023-03-01T06:27:53.536Z,100.00
2023-03-01T06:30:22.465Z,100.00
2023-03-01T06:32:49.573Z,100.00
2023-03-01T06:35:20.533Z,100.00
2023-03-01T06:37:48.907Z,100.00
2023-03-01T06:40:16.447Z,100.00
2023-03-01T06:42:45.050Z,100.00
2023-03-01T06:45:12.597Z,100.00
2023-03-01T06:47:39.517Z,100.00
2023-03-01T06:50:06.538Z,100.00
2023-03-01T06:52:33.235Z,100.00
2023-03-01T06:54:59.939Z,100.00
2023-03-01T06:57:26.856Z,100.00
2023-03-01T06:59:53.452Z,100.00
2023-03-01T07:02:20.085Z,100.00
2023-03-01T07:04:46.637Z,100.00
2023-03-01T07:07:13.176Z,100.00
2023-03-01T07:09:39.763Z,100.00
2023-03-01T07:12:06.959Z,100.00
2023-03-01T07:14:33.517Z,100.00
2023-03-01T07:17:00.331Z,100.00
2023-03-01T07:19:27.001Z,100.00
2023-03-01T07:21:53.595Z,100.00
2023-03-01T07:24:20.128Z,100.00
2023-03-01T07:26:52.908Z,100.00
2023-03-01T07:29:19.453Z,100.00
2023-03-01T07:31:46.172Z,100.00
2023-03-01T07:34:12.816Z,100.00
2023-03-01T07:36:40.612Z,100.00
2023-03-01T07:39:07.617Z,100.00
2023-03-01T07:41:34.228Z,100.00
2023-03-01T07:44:00.832Z,100.00
2023-03-01T07:46:27.423Z,100.00
2023-03-01T07:48:54.259Z,100.00
2023-03-01T07:51:21.936Z,100.00
2023-03-01T07:53:49.205Z,100.00
2023-03-01T07:56:18.755Z,100.00
2023-03-01T07:58:46.234Z,100.00
2023-03-01T08:01:15.591Z,100.00
2023-03-01T08:03:43.372Z,100.00
2023-03-01T08:06:11.166Z,100.00
2023-03-01T08:08:38.603Z,100.00
2023-03-01T08:11:07.150Z,100.00
2023-03-01T08:13:34.351Z,100.00
2023-03-01T08:16:06.512Z,100.00
2023-03-01T08:18:33.374Z,100.00
2023-03-01T08:21:08.097Z,100.00
2023-03-01T08:23:35.486Z,100.00
2023-03-01T08:26:07.324Z,100.00
2023-03-01T08:28:34.276Z,100.00
2023-03-01T08:31:00.972Z,100.00
2023-03-01T08:33:27.950Z,100.00
2023-03-01T08:36:03.769Z,100.00
2023-03-01T08:38:30.340Z,100.00
2023-03-01T08:41:00.682Z,100.00
2023-03-01T08:43:27.253Z,100.00
2023-03-01T08:45:53.863Z,100.00
2023-03-01T08:48:20.608Z,100.00
2023-03-01T08:50:47.541Z,100.00
2023-03-01T08:53:14.132Z,100.00
2023-03-01T08:55:40.688Z,100.00
2023-03-01T08:58:07.232Z,100.00
2023-03-01T09:00:35.875Z,100.00
2023-03-01T09:03:02.946Z,100.00
2023-03-01T09:05:33.109Z,100.00
2023-03-01T09:07:59.808Z,100.00
2023-03-01T09:10:26.754Z,100.00
2023-03-01T09:12:53.535Z,100.00
2023-03-01T09:15:20.187Z,100.00
2023-03-01T09:17:46.708Z,100.00
2023-03-01T09:20:13.273Z,100.00
2023-03-01T09:22:39.819Z,100.00
2023-03-01T09:25:06.984Z,100.00
2023-03-01T09:27:33.575Z,100.00
2023-03-01T09:30:00.124Z,100.00
2023-03-01T09:32:26.755Z,100.00
2023-03-01T09:35:04.533Z,100.00
2023-03-01T09:37:35.630Z,100.00
2023-03-01T09:40:04.770Z,100.00
2023-03-01T09:42:34.821Z,100.00
2023-03-01T09:45:05.915Z,100.00
2023-03-01T09:47:35.991Z,100.00
2023-03-01T09:50:17.899Z,100.00
2023-03-01T09:53:01.092Z,100.00
2023-03-01T09:55:44.023Z,100.00
2023-03-01T09:58:43.028Z,100.00
2023-03-01T10:01:47.244Z,100.00
2023-03-01T10:04:44.218Z,100.00
2023-03-01T10:07:10.739Z,100.00
2023-03-01T10:09:43.632Z,100.00
2023-03-01T10:12:17.774Z,100.00
2023-03-01T10:15:26.280Z,100.00
2023-03-01T10:18:01.280Z,100.00
2023-03-01T10:20:34.852Z,100.00
2023-03-01T10:23:02.207Z,100.00
2023-03-01T10:25:44.784Z,100.00
2023-03-01T10:28:20.592Z,100.00
2023-03-01T10:30:47.545Z,100.00
2023-03-01T10:33:38.415Z,100.00
2023-03-01T10:36:05.282Z,100.00
2023-03-01T10:38:48.473Z,100.00
2023-03-01T10:41:15.029Z,100.00
2023-03-01T10:43:54.612Z,100.00
2023-03-01T10:46:33.695Z,100.00
2023-03-01T10:49:15.703Z,100.00
2023-03-01T10:51:44.458Z,100.00
2023-03-01T10:54:24.761Z,100.00
2023-03-01T10:56:54.873Z,100.00
2023-03-01T10:59:31.976Z,100.00
2023-03-01T11:02:23.387Z,100.00
2023-03-01T11:05:16.143Z,100.00
2023-03-01T11:07:57.539Z,100.00
2023-03-01T11:10:36.008Z,100.00
2023-03-01T11:13:14.368Z,100.00
2023-03-01T11:15:41.086Z,100.00
2023-03-01T11:18:21.152Z,100.00
2023-03-01T11:20:48.304Z,100.00
2023-03-01T11:23:16.359Z,96.18
2023-03-01T11:26:00.998Z,90.71
2023-03-01T11:28:30.703Z,95.33
2023-03-01T11:31:08.522Z,95.51
2023-03-01T11:33:47.583Z,94.47
2023-03-01T11:36:47.731Z,98.06
2023-03-01T11:39:33.415Z,98.91
2023-03-01T11:42:26.184Z,88.47
2023-03-01T11:44:56.513Z,86.85
2023-03-01T11:47:44.552Z,91.50
2023-03-01T11:50:36.119Z,90.40
2023-03-01T11:53:21.333Z,85.88
2023-03-01T11:56:04.454Z,83.49
2023-03-01T11:58:36.992Z,84.23
2023-03-01T12:01:13.471Z,81.85
2023-03-01T12:04:08.246Z,83.56
2023-03-01T12:06:47.006Z,85.10
2023-03-01T12:09:24.963Z,80.90
2023-03-01T12:12:18.147Z,79.14
2023-03-01T12:15:09.096Z,83.41
2023-03-01T12:17:50.867Z,79.49
2023-03-01T12:20:23.277Z,77.01
2023-03-01T12:23:14.708Z,79.77
2023-03-01T12:25:46.025Z,77.65
2023-03-01T12:28:21.045Z,77.27
2023-03-01T12:30:53.439Z,82.68
2023-03-01T12:33:26.055Z,92.54
2023-03-01T12:35:59.794Z,81.35
2023-03-01T12:38:42.805Z,85.48
2023-03-01T12:41:15.299Z,82.98
2023-03-01T12:43:44.658Z,77.20
2023-03-01T12:46:30.671Z,76.48
2023-03-01T12:49:00.377Z,80.96
2023-03-01T12:51:32.095Z,84.37
2023-03-01T12:54:06.142Z,76.70
2023-03-01T12:56:39.154Z,76.26
2023-03-01T12:59:19.532Z,77.08
2023-03-01T13:02:05.250Z,77.64
2023-03-01T13:04:59.325Z,77.14
2023-03-01T13:07:28.944Z,73.36
2023-03-01T13:09:55.415Z,74.48
2023-03-01T13:12:49.960Z,70.59
2023-03-01T13:15:36.197Z,71.89
2023-03-01T13:18:28.330Z,73.96
2023-03-01T13:21:00.642Z,70.27
2023-03-01T13:23:30.907Z,71.96
2023-03-01T13:26:14.097Z,69.77
2023-03-01T13:28:42.142Z,71.70
2023-03-01T13:31:31.481Z,73.15
2023-03-01T13:34:02.545Z,70.03
2023-03-01T13:36:29.634Z,70.04
2023-03-01T13:39:00.610Z,72.52
2023-03-01T13:41:42.224Z,72.12
2023-03-01T13:44:34.457Z,74.99
2023-03-01T13:47:07.474Z,66.26
2023-03-01T13:49:46.641Z,70.57
2023-03-01T13:52:40.532Z,68.47
2023-03-01T13:55:43.225Z,71.16
2023-03-01T13:58:23.879Z,71.34
2023-03-01T14:01:01.399Z,71.29
2023-03-01T14:03:30.014Z,73.81
2023-03-01T14:06:17.240Z,68.22
2023-03-01T14:08:47.305Z,70.06
2023-03-01T14:11:35.682Z,71.06
2023-03-01T14:14:17.334Z,68.77
2023-03-01T14:16:46.944Z,70.68
2023-03-01T14:19:31.176Z,66.70
2023-03-01T14:22:05.282Z,66.76
2023-03-01T14:24:35.240Z,64.60
2023-03-01T14:27:02.856Z,62.79
2023-03-01T14:29:41.180Z,63.06
2023-03-01T14:32:21.791Z,61.61
2023-03-01T14:34:50.267Z,65.25
2023-03-01T14:37:23.601Z,69.04
2023-03-01T14:39:50.861Z,70.48
2023-03-01T14:42:18.509Z,66.44
2023-03-01T14:44:48.667Z,67.37
2023-03-01T14:47:20.841Z,63.81
2023-03-01T14:49:50.467Z,65.96
2023-03-01T14:52:26.557Z,69.56
2023-03-01T14:54:55.465Z,66.18
2023-03-01T14:57:24.754Z,67.77
2023-03-01T14:59:55.472Z,66.80
2023-03-01T15:02:26.329Z,67.99
2023-03-01T15:05:01.661Z,70.70
2023-03-01T15:07:32.507Z,70.14
2023-03-01T15:10:00.409Z,68.31
2023-03-01T15:12:29.899Z,66.64
2023-03-01T15:15:03.935Z,67.35
2023-03-01T15:17:37.234Z,69.69
2023-03-01T15:20:07.556Z,67.15
2023-03-01T15:22:34.508Z,66.58
2023-03-01T15:25:01.557Z,66.49
2023-03-01T15:27:28.649Z,66.12
2023-03-01T15:30:00.255Z,65.70
2023-03-01T15:32:37.078Z,65.51
2023-03-01T15:35:41.583Z,63.44
2023-03-01T15:38:26.979Z,62.21
2023-03-01T15:40:54.024Z,64.21
2023-03-01T15:43:47.404Z,68.17
2023-03-01T15:46:24.503Z,65.35
2023-03-01T15:48:55.680Z,63.57
2023-03-01T15:51:29.241Z,64.27
2023-03-01T15:53:56.133Z,66.50
2023-03-01T15:56:23.859Z,66.12
2023-03-01T15:58:50.471Z,65.75
2023-03-01T16:01:18.498Z,65.67
2023-03-01T16:03:45.592Z,66.89
2023-03-01T16:06:12.900Z,67.51
2023-03-01T16:08:39.867Z,69.51
2023-03-01T16:11:15.327Z,72.37
2023-03-01T16:13:42.080Z,74.50
2023-03-01T16:16:14.445Z,73.71
2023-03-01T16:18:41.069Z,79.11
2023-03-01T16:21:07.889Z,77.64
2023-03-01T16:23:34.472Z,77.04
2023-03-01T16:26:01.613Z,77.31
2023-03-01T16:28:29.436Z,75.90
2023-03-01T16:30:56.890Z,77.82
2023-03-01T16:33:28.092Z,78.10
2023-03-01T16:36:01.205Z,76.27
2023-03-01T16:38:27.887Z,79.94
2023-03-01T16:40:54.625Z,81.15
2023-03-01T16:43:21.284Z,83.72
2023-03-01T16:45:48.121Z,87.96
2023-03-01T16:48:15.400Z,85.51
2023-03-01T16:50:42.024Z,85.19
2023-03-01T16:53:08.797Z,88.89
2023-03-01T16:55:35.361Z,92.39
2023-03-01T16:58:02.532Z,91.66
2023-03-01T17:00:29.246Z,90.69
2023-03-01T17:02:55.955Z,90.53
2023-03-01T17:05:24.894Z,90.35
2023-03-01T17:07:52.029Z,96.83
2023-03-01T17:10:18.840Z,96.46
2023-03-01T17:12:45.489Z,97.51
2023-03-01T17:15:12.995Z,98.07
2023-03-01T17:17:39.731Z,100.00
2023-03-01T17:20:06.684Z,99.91
2023-03-01T17:22:33.264Z,100.00
2023-03-01T17:24:59.910Z,100.00
2023-03-01T17:27:26.635Z,100.00
2023-03-01T17:29:53.446Z,100.00
2023-03-01T17:32:20.109Z,100.00
2023-03-01T17:34:46.860Z,100.00
2023-03-01T17:37:13.475Z,100.00
2023-03-01T17:39:40.124Z,100.00
2023-03-01T17:42:07.133Z,100.00
2023-03-01T17:44:34.715Z,100.00
2023-03-01T17:47:03.613Z,100.00
2023-03-01T17:49:30.872Z,100.00
2023-03-01T17:51:57.793Z,100.00
2023-03-01T17:54:24.491Z,100.00
2023-03-01T17:56:51.561Z,100.00
2023-03-01T17:59:18.366Z,100.00
2023-03-01T18:01:45.259Z,100.00
2023-03-01T18:04:12.171Z,100.00
2023-03-01T18:06:40.668Z,100.00
2023-03-01T18:09:08.262Z,100.00
2023-03-01T18:11:35.638Z,100.00
2023-03-01T18:14:02.232Z,100.00
2023-03-01T18:16:31.844Z,100.00
2023-03-01T18:18:59.430Z,100.00
2023-03-01T18:21:26.118Z,100.00
2023-03-01T18:23:53.352Z,100.00
2023-03-01T18:26:22.196Z,100.00
2023-03-01T18:28:51.528Z,100.00
2023-03-01T18:31:22.262Z,100.00
2023-03-01T18:33:51.404Z,100.00
2023-03-01T18:36:27.101Z,100.00
2023-03-01T18:38:56.284Z,100.00
2023-03-01T18:41:25.183Z,100.00
2023-03-01T18:43:52.351Z,100.00
2023-03-01T18:46:20.377Z,100.00
2023-03-01T18:48:47.708Z,100.00
2023-03-01T18:51:17.765Z,100.00
2023-03-01T18:53:44.585Z,100.00
2023-03-01T18:56:12.363Z,100.00
2023-03-01T18:58:39.333Z,100.00
2023-03-01T19:01:08.272Z,100.00
2023-03-01T19:03:35.777Z,100.00
2023-03-01T19:06:02.440Z,100.00
2023-03-01T19:08:30.433Z,100.00
2023-03-01T19:10:58.870Z,100.00
2023-03-01T19:13:26.129Z,100.00
2023-03-01T19:15:53.638Z,100.00
2023-03-01T19:18:20.257Z,100.00
2023-03-01T19:20:50.556Z,100.00
2023-03-01T19:23:17.229Z,100.00
2023-03-01T19:25:43.770Z,100.00
2023-03-01T19:28:10.281Z,100.00
2023-03-01T19:30:38.031Z,100.00
2023-03-01T19:33:04.649Z,100.00
2023-03-01T19:35:33.784Z,100.00
2023-03-01T19:38:00.292Z,100.00
2023-03-01T19:40:26.852Z,100.00
2023-03-01T19:42:53.411Z,100.00
2023-03-01T19:45:25.285Z,100.00
2023-03-01T19:47:58.535Z,100.00
2023-03-01T19:50:25.063Z,100.00
2023-03-01T19:52:52.639Z,100.00
2023-03-01T19:55:19.194Z,100.00
2023-03-01T19:57:45.908Z,100.00
2023-03-01T20:00:12.813Z,100.00
2023-03-01T20:02:39.605Z,100.00
2023-03-01T20:05:06.353Z,100.00
2023-03-01T20:07:32.896Z,100.00
2023-03-01T20:09:59.584Z,100.00
2023-03-01T20:12:26.194Z,100.00
2023-03-01T20:14:55.419Z,100.00
2023-03-01T20:17:23.050Z,100.00
2023-03-01T20:19:49.662Z,100.00
2023-03-01T20:22:17.618Z,100.00
2023-03-01T20:24:44.514Z,100.00
2023-03-01T20:27:11.263Z,100.00
2023-03-01T20:29:38.273Z,100.00
2023-03-01T20:32:05.450Z,100.00
2023-03-01T20:34:32.078Z,100.00
2023-03-01T20:36:58.709Z,100.00
2023-03-01T20:39:25.282Z,100.00
2023-03-01T20:41:51.841Z,100.00
2023-03-01T20:44:18.434Z,100.00
2023-03-01T20:46:45.112Z,100.00
2023-03-01T20:49:11.797Z,100.00
2023-03-01T20:51:38.717Z,100.00
2023-03-01T20:54:05.461Z,100.00
2023-03-01T20:56:32.397Z,100.00
2023-03-01T20:58:59.140Z,100.00
2023-03-01T21:01:25.919Z,100.00
2023-03-01T21:03:52.702Z,100.00
2023-03-01T21:06:19.587Z,100.00
2023-03-01T21:08:46.619Z,100.00
2023-03-01T21:11:13.179Z,100.00
2023-03-01T21:13:41.720Z,100.00
2023-03-01T21:16:13.387Z,100.00
2023-03-01T21:18:40.647Z,100.00
2023-03-01T21:21:09.811Z,100.00
2023-03-01T21:23:38.404Z,100.00
2023-03-01T21:26:08.917Z,100.00
2023-03-01T21:28:36.814Z,100.00
2023-03-01T21:31:05.031Z,100.00
2023-03-01T21:33:31.985Z,100.00
2023-03-01T21:36:03.646Z,100.00
2023-03-01T21:38:36.880Z,100.00
2023-03-01T21:41:11.713Z,100.00
2023-03-01T21:43:40.038Z,100.00
2023-03-01T21:46:12.008Z,100.00
2023-03-01T21:48:41.818Z,100.00
2023-03-01T21:51:11.268Z,100.00
2023-03-01T21:53:38.338Z,100.00
2023-03-01T21:56:05.852Z,100.00
2023-03-01T21:58:32.529Z,100.00
2023-03-01T22:01:09.036Z,100.00
2023-03-01T22:03:45.130Z,100.00
2023-03-01T22:06:24.647Z,100.00
2023-03-01T22:08:58.089Z,100.00
2023-03-01T22:11:26.241Z,100.00
2023-03-01T22:13:55.452Z,100.00
2023-03-01T22:16:27.446Z,100.00
2023-03-01T22:18:55.165Z,100.00
2023-03-01T22:21:23.094Z,100.00
2023-03-01T22:23:49.657Z,100.00
2023-03-01T22:26:38.564Z,100.00
2023-03-01T22:29:09.313Z,100.00
2023-03-01T22:31:36.362Z,100.00
2023-03-01T22:34:04.053Z,100.00
2023-03-01T22:36:31.221Z,100.00
2023-03-01T22:39:01.855Z,100.00
2023-03-01T22:41:35.958Z,100.00
2023-03-01T22:44:02.860Z,100.00
2023-03-01T22:46:29.998Z,100.00
2023-03-01T22:48:57.062Z,100.00
2023-03-01T22:51:25.796Z,100.00
2023-03-01T22:53:52.682Z,100.00
2023-03-01T22:56:23.093Z,100.00
2023-03-01T22:58:49.743Z,100.00
2023-03-01T23:01:22.510Z,100.00
2023-03-01T23:03:49.743Z,100.00
2023-03-01T23:06:17.843Z,100.00
2023-03-01T23:08:48.489Z,100.00
2023-03-01T23:11:17.099Z,100.00
2023-03-01T23:13:44.088Z,100.00
2023-03-01T23:16:11.834Z,100.00
2023-03-01T23:18:38.819Z,100.00
2023-03-01T23:21:17.128Z,100.00
2023-03-01T23:23:46.505Z,100.00
2023-03-01T23:26:13.799Z,100.00
2023-03-01T23:28:40.607Z,100.00
2023-03-01T23:31:11.033Z,100.00
2023-03-01T23:33:40.471Z,100.00
2023-03-01T23:36:15.416Z,100.00
2023-03-01T23:38:42.124Z,100.00
2023-03-01T23:41:13.594Z,100.00
2023-03-01T23:43:40.393Z,100.00
2023-03-01T23:46:07.059Z,100.00
2023-03-01T23:48:33.912Z,100.00
2023-03-01T23:51:05.078Z,100.00
2023-03-01T23:53:31.840Z,100.00
2023-03-01T23:55:58.621Z,100.00
2023-03-01T23:58:28.599Z,100.00
